Terminal Aerodrome Forecast
Issued by NWS

Home | Current Version | Previous Version | Text Only | Print | Product List | Glossary On
Versions: 1 2 3 4 5 6 7 8 9 10 11 12
000
FTUS44 KTSA 261700
TAFXNA
TAF
KXNA 261725Z 2618/2718 18015KT P6SM OVC025
     FM262100 16010KT P6SM OVC012
     FM270000 17007KT 4SM -RADZ OVC007 PROB30 2706/2712 2SM -RADZ
      OVC004
     FM271200 32006KT 4SM BR OVC004
     FM271500 33007KT 5SM BR OVC010=

USA.gov is the U.S. government's official web portal to all federal, state and local government web resources and services.